Time;durP1;ratioP1;P1;durP2;ratioP2;P2;SDS_P1;SDS_P2;PMS_P1;PMS_P2;Temp;Humidity;BMP_temperature;BMP_pressure;BME280_temperature;BME280_humidity;BME280_pressure;Samples;Min_cycle;Max_cycle;Signal;HPM_P1;HPM_P2
2023/08/06 00:01:37;;;;;;;3.43;3.13;;;;;;;21.21;59.83;96722.00;5090249;28;20224;-69
2023/08/06 00:04:03;;;;;;;3.30;3.00;;;;;;;21.20;59.69;96723.84;5091615;28;20293;-71
2023/08/06 00:06:28;;;;;;;3.30;3.00;;;;;;;21.22;59.58;96720.97;5091329;28;20515;-72
2023/08/06 00:08:54;;;;;;;3.97;2.63;;;;;;;21.21;59.23;96717.47;5095164;28;20625;-69
2023/08/06 00:11:20;;;;;;;2.70;2.50;;;;;;;21.24;58.73;96709.03;5087546;28;20746;-72
2023/08/06 00:13:45;;;;;;;3.13;2.83;;;;;;;21.23;58.87;96699.41;5084688;28;20428;-70
2023/08/06 00:16:12;;;;;;;3.80;3.07;;;;;;;21.23;59.06;96698.59;5089773;28;20205;-72
2023/08/06 00:18:38;;;;;;;3.73;2.50;;;;;;;21.22;59.10;96705.78;5089518;28;20186;-70
2023/08/06 00:21:03;;;;;;;3.50;3.20;;;;;;;21.21;59.00;96701.47;5090346;28;20477;-70
2023/08/06 00:23:29;;;;;;;3.90;3.30;;;;;;;21.20;58.64;96707.84;5090324;28;20276;-71
2023/08/06 00:25:54;;;;;;;3.30;3.00;;;;;;;21.15;58.76;96705.88;5090887;28;20806;-70
2023/08/06 00:28:20;;;;;;;2.87;2.67;;;;;;;21.13;58.89;96704.50;5088334;28;20224;-70
2023/08/06 00:30:45;;;;;;;3.20;2.90;;;;;;;21.12;58.57;96708.22;5089965;28;20221;-72
2023/08/06 00:33:10;;;;;;;2.93;2.70;;;;;;;21.09;58.09;96700.69;5090982;28;20335;-69
2023/08/06 00:35:36;;;;;;;3.67;2.70;;;;;;;21.02;57.90;96696.28;5076382;28;20301;-69
2023/08/06 00:38:02;;;;;;;2.40;2.20;;;;;;;20.93;57.74;96694.19;5084967;28;20828;-70
2023/08/06 00:40:30;;;;;;;4.00;2.23;;;;;;;20.90;57.38;96698.16;5089322;28;20224;-71
2023/08/06 00:42:55;;;;;;;2.20;2.10;;;;;;;20.83;57.00;96698.25;5089066;28;20769;-71
2023/08/06 00:45:21;;;;;;;2.30;2.10;;;;;;;20.85;56.79;96695.34;5082938;28;20430;-72
2023/08/06 00:47:47;;;;;;;2.43;2.23;;;;;;;20.83;56.62;96682.28;5088489;28;20182;-69
2023/08/06 00:50:13;;;;;;;2.93;2.20;;;;;;;20.81;56.84;96683.53;5094496;28;20546;-70
2023/08/06 00:52:38;;;;;;;3.00;2.70;;;;;;;20.75;56.79;96682.59;5089387;28;20194;-73
2023/08/06 00:55:04;;;;;;;3.27;2.20;;;;;;;20.69;57.05;96676.31;5082917;28;20237;-71
2023/08/06 00:57:29;;;;;;;2.20;2.00;;;;;;;20.67;57.36;96672.28;5085953;28;20190;-70
2023/08/06 00:59:55;;;;;;;2.50;2.30;;;;;;;20.62;57.04;96670.31;5081655;28;20456;-70
2023/08/06 01:02:20;;;;;;;2.50;2.30;;;;;;;20.58;57.47;96663.81;5086380;28;20221;-72
2023/08/06 01:04:46;;;;;;;2.53;2.33;;;;;;;20.59;56.81;96668.09;5088751;28;20830;-70
2023/08/06 01:07:38;;;;;;;2.23;2.03;;;;;;;20.61;57.45;96673.16;5086131;28;20281;-70
2023/08/06 01:10:41;;;;;;;2.77;2.40;;;;;;;20.61;57.54;96665.19;5073710;28;20756;-70
2023/08/06 01:13:27;;;;;;;2.53;2.03;;;;;;;20.60;56.72;96666.25;5095653;28;20507;-70
2023/08/06 01:15:59;;;;;;;2.50;2.30;;;;;;;20.55;56.38;96670.41;5084842;28;20470;-70
2023/08/06 01:18:25;;;;;;;2.83;2.30;;;;;;;20.56;56.36;96671.19;5084900;28;20493;-70
2023/08/06 01:20:50;;;;;;;2.83;2.50;;;;;;;20.56;56.75;96665.88;5089157;28;20469;-70
2023/08/06 01:23:16;;;;;;;5.23;2.63;;;;;;;20.52;56.83;96664.75;5087655;28;20428;-70
2023/08/06 01:25:59;;;;;;;2.40;2.23;;;;;;;20.50;56.73;96666.81;5088767;28;20190;-70
2023/08/06 01:28:59;;;;;;;2.87;2.23;;;;;;;20.43;57.06;96661.59;5086856;28;20225;-71
2023/08/06 01:31:30;;;;;;;2.33;2.13;;;;;;;20.36;57.24;96658.22;5084455;28;20438;-71
2023/08/06 01:33:58;;;;;;;2.73;1.90;;;;;;;20.35;57.14;96660.06;5087465;28;20443;-72
2023/08/06 01:36:23;;;;;;;2.30;2.00;;;;;;;20.39;57.21;96666.56;5092354;28;20505;-71
2023/08/06 01:38:51;;;;;;;3.13;2.30;;;;;;;20.37;56.75;96657.16;5081322;28;20508;-71
2023/08/06 01:41:17;;;;;;;2.03;1.93;;;;;;;20.37;56.81;96655.34;5087426;28;20201;-72
2023/08/06 01:43:42;;;;;;;3.23;2.57;;;;;;;20.37;56.60;96655.34;5081243;28;20800;-70
2023/08/06 01:46:08;;;;;;;2.30;2.10;;;;;;;20.26;56.78;96658.78;5096085;28;20239;-70
2023/08/06 01:48:33;;;;;;;2.57;2.27;;;;;;;20.24;57.07;96659.00;5084546;28;20655;-67
2023/08/06 01:50:58;;;;;;;2.47;2.27;;;;;;;20.28;56.49;96658.53;5088139;28;20209;-71
2023/08/06 01:53:24;;;;;;;2.63;2.43;;;;;;;20.29;56.69;96658.31;5081280;28;20192;-69
2023/08/06 01:55:49;;;;;;;2.80;2.60;;;;;;;20.27;56.81;96649.78;5087674;28;20309;-70
2023/08/06 01:58:15;;;;;;;3.33;2.33;;;;;;;20.28;56.50;96654.06;5088484;28;20197;-70
2023/08/06 02:00:41;;;;;;;3.10;2.17;;;;;;;20.24;56.84;96645.69;5091105;28;20205;-70
2023/08/06 02:03:06;;;;;;;2.90;2.60;;;;;;;20.22;56.79;96638.97;5089532;28;20197;-71
2023/08/06 02:05:32;;;;;;;3.13;2.37;;;;;;;20.22;56.80;96633.66;5083870;28;20280;-71
2023/08/06 02:07:57;;;;;;;1.97;1.80;;;;;;;20.23;57.15;96629.97;5081962;28;20284;-71
2023/08/06 02:10:22;;;;;;;2.60;2.40;;;;;;;20.09;56.51;96630.16;5086624;28;20218;-72
2023/08/06 02:12:48;;;;;;;3.50;3.00;;;;;;;20.07;57.07;96624.25;5095833;28;20330;-71
2023/08/06 02:15:13;;;;;;;8.63;2.33;;;;;;;20.09;57.04;96619.53;5085258;28;20215;-71
2023/08/06 02:17:39;;;;;;;2.60;2.40;;;;;;;20.12;56.92;96614.78;5087847;28;20621;-71
2023/08/06 02:20:05;;;;;;;2.97;2.13;;;;;;;20.13;56.69;96611.09;5090300;28;20247;-73
2023/08/06 02:22:30;;;;;;;2.50;2.30;;;;;;;20.12;56.53;96602.28;5069774;28;20178;-72
2023/08/06 02:24:56;;;;;;;2.23;2.13;;;;;;;20.09;56.31;96598.25;5068827;28;20443;-70
2023/08/06 02:27:21;;;;;;;2.70;2.50;;;;;;;20.09;56.33;96592.13;5069441;28;20197;-71
2023/08/06 02:29:47;;;;;;;2.60;2.40;;;;;;;20.02;56.06;96597.56;5081069;28;20702;-72
2023/08/06 02:32:12;;;;;;;3.13;2.20;;;;;;;19.96;55.94;96598.44;5086582;28;20284;-71
2023/08/06 02:34:38;;;;;;;3.47;2.80;;;;;;;19.83;55.87;96577.34;5060756;28;20218;-70
2023/08/06 02:37:04;;;;;;;4.70;2.33;;;;;;;19.83;56.54;96587.97;5069861;28;20189;-72
2023/08/06 02:39:29;;;;;;;3.70;2.43;;;;;;;19.80;56.44;96587.38;5065622;28;20206;-72
2023/08/06 02:41:54;;;;;;;4.50;2.50;;;;;;;19.84;56.31;96589.59;5091567;28;20190;-70
2023/08/06 02:44:20;;;;;;;2.67;2.47;;;;;;;19.85;56.40;96575.28;5082049;28;20228;-70
2023/08/06 02:46:45;;;;;;;4.20;2.27;;;;;;;19.79;56.38;96574.31;5097323;28;20318;-72
2023/08/06 02:49:11;;;;;;;2.57;2.37;;;;;;;19.78;56.29;96565.53;5092001;28;20201;-70
2023/08/06 02:51:36;;;;;;;4.30;2.73;;;;;;;19.75;56.57;96571.31;5087357;28;20181;-71
2023/08/06 02:54:02;;;;;;;3.40;3.10;;;;;;;19.73;56.15;96562.75;5084087;28;20212;-70
2023/08/06 02:56:27;;;;;;;2.57;2.37;;;;;;;19.70;56.75;96563.19;5083457;28;20219;-69
2023/08/06 02:58:52;;;;;;;2.50;2.17;;;;;;;19.71;56.81;96567.47;5085545;28;20221;-71
2023/08/06 03:01:18;;;;;;;2.73;2.53;;;;;;;19.73;56.91;96556.59;5087891;28;20274;-72
2023/08/06 03:03:43;;;;;;;4.53;2.43;;;;;;;19.75;56.45;96560.69;5080212;28;20226;-70
2023/08/06 03:06:09;;;;;;;5.50;2.10;;;;;;;19.74;56.89;96559.06;5083036;28;20274;-71
2023/08/06 03:08:34;;;;;;;2.03;1.83;;;;;;;19.72;56.69;96565.66;5079136;28;20186;-70
2023/08/06 03:11:00;;;;;;;2.70;2.00;;;;;;;19.72;56.68;96549.69;5086714;28;20215;-69
2023/08/06 03:13:25;;;;;;;2.47;2.30;;;;;;;19.75;56.34;96552.72;5073933;28;20235;-71
2023/08/06 03:15:58;;;;;;;3.33;2.40;;;;;;;19.73;56.16;96553.94;5080295;28;20220;-69
2023/08/06 03:18:25;;;;;;;2.70;2.50;;;;;;;19.71;56.39;96546.22;5074766;28;20197;-71
2023/08/06 03:20:51;;;;;;;2.30;2.20;;;;;;;19.52;56.30;96542.00;5075179;28;20554;-70
2023/08/06 03:23:16;;;;;;;3.10;2.40;;;;;;;19.28;56.97;96540.06;5080634;28;20522;-70
2023/08/06 03:25:42;;;;;;;5.57;2.17;;;;;;;19.26;57.09;96549.28;5085591;28;20196;-71
2023/08/06 03:28:07;;;;;;;2.07;1.83;;;;;;;19.31;57.01;96536.13;5086754;28;20658;-71
2023/08/06 03:30:33;;;;;;;2.70;1.90;;;;;;;19.25;56.56;96540.50;5081385;28;20209;-70
2023/08/06 03:32:58;;;;;;;5.10;2.20;;;;;;;19.35;56.73;96537.31;5090371;28;20725;-70
2023/08/06 03:35:24;;;;;;;3.20;2.00;;;;;;;19.40;56.65;96541.94;5087379;28;20233;-70
2023/08/06 03:37:49;;;;;;;2.20;1.97;;;;;;;19.46;56.83;96536.53;5083735;28;20203;-70
2023/08/06 03:40:15;;;;;;;3.23;2.30;;;;;;;19.51;56.61;96549.16;5084820;28;20201;-71
2023/08/06 03:42:40;;;;;;;3.57;2.10;;;;;;;19.54;56.42;96537.25;5092985;28;20209;-72
2023/08/06 03:45:06;;;;;;;7.27;2.40;;;;;;;19.53;56.31;96535.66;5081184;28;20218;-70
2023/08/06 03:47:32;;;;;;;2.60;2.40;;;;;;;19.52;56.25;96532.19;5087060;28;20265;-70
2023/08/06 03:49:57;;;;;;;3.83;2.00;;;;;;;19.53;56.60;96535.66;5091070;28;20446;-72
2023/08/06 03:52:23;;;;;;;2.37;2.07;;;;;;;19.44;56.98;96537.81;5093577;28;20190;-71
2023/08/06 03:54:48;;;;;;;2.03;1.63;;;;;;;19.41;57.17;96528.44;5085450;28;20281;-72
2023/08/06 03:57:14;;;;;;;1.97;1.60;;;;;;;19.45;57.09;96534.13;5085631;28;20217;-71
2023/08/06 03:59:39;;;;;;;1.60;1.40;;;;;;;19.49;56.97;96533.44;5083141;28;20209;-70
2023/08/06 04:02:05;;;;;;;4.40;1.67;;;;;;;19.38;57.18;96528.91;5086494;28;20590;-69
2023/08/06 04:04:30;;;;;;;4.50;2.10;;;;;;;19.38;57.47;96534.22;5089827;28;20189;-69
2023/08/06 04:06:55;;;;;;;2.40;1.97;;;;;;;19.43;57.16;96531.69;5083122;28;20196;-70
2023/08/06 04:09:21;;;;;;;2.20;1.70;;;;;;;19.39;57.77;96530.53;5089845;28;20274;-71
2023/08/06 04:11:46;;;;;;;3.47;1.90;;;;;;;19.44;57.31;96532.50;5086636;28;20190;-71
2023/08/06 04:14:12;;;;;;;4.67;1.90;;;;;;;19.44;57.26;96533.31;5098239;28;20280;-70
2023/08/06 04:16:37;;;;;;;2.60;2.13;;;;;;;19.48;57.47;96539.78;5097386;28;20234;-69
2023/08/06 04:19:03;;;;;;;5.23;2.40;;;;;;;19.26;57.41;96546.63;5091205;28;20217;-70
2023/08/06 04:21:28;;;;;;;2.33;2.00;;;;;;;19.26;57.59;96555.41;5086525;28;20273;-71
2023/08/06 04:23:53;;;;;;;3.80;1.67;;;;;;;19.25;58.04;96560.94;5086013;28;20190;-69
2023/08/06 04:26:19;;;;;;;3.37;2.00;;;;;;;19.24;57.92;96554.00;5086310;28;20188;-72
2023/08/06 04:28:44;;;;;;;3.50;1.90;;;;;;;19.26;57.91;96563.38;5088011;28;20273;-70
2023/08/06 04:31:10;;;;;;;2.10;1.70;;;;;;;19.28;57.65;96561.31;5089105;28;20201;-69
2023/08/06 04:33:35;;;;;;;2.30;1.83;;;;;;;19.31;57.84;96560.88;5090701;28;20647;-69
2023/08/06 04:36:01;;;;;;;2.50;1.57;;;;;;;19.37;57.75;96559.16;5090654;28;20215;-69
2023/08/06 04:38:26;;;;;;;3.17;1.70;;;;;;;19.40;57.72;96552.56;5088613;28;20207;-69
2023/08/06 04:40:52;;;;;;;2.07;1.30;;;;;;;19.46;57.57;96565.78;5085968;28;20205;-69
2023/08/06 04:43:17;;;;;;;5.00;1.93;;;;;;;19.45;57.50;96563.34;5094782;28;20190;-71
2023/08/06 04:45:50;;;;;;;1.70;1.50;;;;;;;19.47;57.35;96569.22;5096084;28;20188;-71
2023/08/06 04:48:15;;;;;;;1.70;1.30;;;;;;;19.46;57.60;96565.78;5088860;28;20201;-71
2023/08/06 04:50:48;;;;;;;1.83;1.53;;;;;;;19.51;57.72;96566.97;5085730;28;20444;-70
2023/08/06 04:53:14;;;;;;;1.77;1.60;;;;;;;19.47;57.92;96564.75;5088948;28;20344;-70
2023/08/06 04:55:39;;;;;;;1.40;1.20;;;;;;;19.51;57.90;96570.41;5097648;28;20463;-70
2023/08/06 04:58:05;;;;;;;1.90;1.60;;;;;;;19.56;57.86;96573.22;5092736;28;20767;-70
2023/08/06 05:00:31;;;;;;;1.70;1.20;;;;;;;19.55;57.47;96579.56;5097327;28;20210;-69
2023/08/06 05:02:56;;;;;;;3.37;1.50;;;;;;;19.53;57.44;96578.19;5085361;28;21549;-70
2023/08/06 05:05:22;;;;;;;4.00;1.73;;;;;;;19.51;57.30;96574.94;5094812;28;20216;-70
2023/08/06 05:07:48;;;;;;;2.07;1.10;;;;;;;19.46;58.40;96572.94;5083019;28;20192;-69
2023/08/06 05:10:13;;;;;;;3.10;1.40;;;;;;;19.39;58.23;96573.03;5095298;28;20208;-70
2023/08/06 05:12:39;;;;;;;3.37;1.40;;;;;;;19.46;58.22;96560.47;5086247;28;20474;-71
2023/08/06 05:15:04;;;;;;;1.87;1.20;;;;;;;19.41;58.27;96562.97;5095024;28;20235;-71
2023/08/06 05:17:30;;;;;;;2.63;1.50;;;;;;;19.42;58.70;96561.13;5090672;28;20221;-70
2023/08/06 05:19:55;;;;;;;1.57;1.40;;;;;;;19.43;58.42;96568.88;5084884;28;20331;-70
2023/08/06 05:22:21;;;;;;;1.73;1.27;;;;;;;19.42;58.16;96561.13;5089978;28;20228;-72
2023/08/06 05:24:46;;;;;;;2.53;1.20;;;;;;;19.42;58.26;96561.94;5088632;28;20194;-69
2023/08/06 05:27:12;;;;;;;2.60;1.17;;;;;;;19.47;58.15;96566.56;5086598;28;20228;-69
2023/08/06 05:29:37;;;;;;;2.13;1.00;;;;;;;19.53;57.85;96563.03;5078349;28;20338;-71
2023/08/06 05:32:03;;;;;;;1.43;0.90;;;;;;;19.37;58.01;96553.84;5082721;28;20285;-68
2023/08/06 05:34:29;;;;;;;4.73;1.10;;;;;;;19.42;58.14;96561.94;5080294;28;20194;-69
2023/08/06 05:36:54;;;;;;;2.90;1.10;;;;;;;19.56;58.35;96570.56;5083240;28;20466;-70
2023/08/06 05:39:19;;;;;;;1.67;1.10;;;;;;;19.67;58.29;96579.59;5089692;28;20244;-71
2023/08/06 05:41:45;;;;;;;1.97;0.90;;;;;;;19.74;57.92;96575.00;5081762;28;20181;-71
2023/08/06 05:44:10;;;;;;;1.40;1.10;;;;;;;19.66;57.47;96585.94;5089605;28;20193;-70
2023/08/06 05:46:36;;;;;;;4.03;1.03;;;;;;;19.65;57.65;96587.81;5082344;28;20186;-70
2023/08/06 05:49:01;;;;;;;3.80;1.00;;;;;;;19.62;57.23;96590.91;5084126;28;20205;-70
2023/08/06 05:51:27;;;;;;;3.53;1.10;;;;;;;19.47;56.88;96579.84;5086607;28;20208;-70
2023/08/06 05:53:52;;;;;;;2.20;1.07;;;;;;;19.58;56.98;96580.94;5081347;28;20189;-71
2023/08/06 05:56:18;;;;;;;1.20;0.80;;;;;;;19.49;56.62;96597.22;5085371;28;20208;-70
2023/08/06 05:58:43;;;;;;;2.20;0.97;;;;;;;19.47;56.52;96593.97;5080591;28;20886;-69
2023/08/06 06:01:09;;;;;;;1.73;0.77;;;;;;;19.51;57.10;96596.19;5083700;28;20266;-72
2023/08/06 06:03:34;;;;;;;1.93;0.87;;;;;;;19.41;57.58;96592.19;5080460;28;20722;-69
2023/08/06 06:06:01;;;;;;;1.53;0.90;;;;;;;19.42;57.48;96599.13;5085561;28;20622;-70
2023/08/06 06:08:26;;;;;;;2.70;0.73;;;;;;;19.35;57.36;96603.72;5088078;28;20268;-70
2023/08/06 06:10:51;;;;;;;1.43;0.63;;;;;;;19.40;57.20;96609.19;5087170;28;20596;-71
2023/08/06 06:13:17;;;;;;;3.10;1.10;;;;;;;19.40;57.45;96606.53;5079091;28;20225;-70
2023/08/06 06:15:42;;;;;;;3.57;0.80;;;;;;;19.31;56.96;96605.19;5085209;28;20315;-70
2023/08/06 06:18:08;;;;;;;1.10;0.87;;;;;;;19.38;57.02;96600.63;5074329;28;20688;-70
2023/08/06 06:20:33;;;;;;;2.03;0.90;;;;;;;19.34;57.21;96602.09;5087420;28;20657;-70
2023/08/06 06:22:59;;;;;;;1.40;0.70;;;;;;;19.28;57.69;96603.81;5087926;28;20185;-69
2023/08/06 06:25:24;;;;;;;2.20;0.90;;;;;;;19.36;57.69;96615.97;5089542;28;20185;-71
2023/08/06 06:27:50;;;;;;;2.63;0.87;;;;;;;19.40;57.77;96622.47;5085932;28;20192;-72
2023/08/06 06:30:15;;;;;;;1.33;0.80;;;;;;;19.45;57.47;96613.84;5084686;28;20684;-71
2023/08/06 06:32:41;;;;;;;2.70;0.80;;;;;;;19.45;57.91;96622.59;5081773;28;20206;-70
2023/08/06 06:35:07;;;;;;;4.87;1.10;;;;;;;19.40;57.28;96622.47;5078957;28;20300;-72
2023/08/06 06:37:32;;;;;;;2.50;1.07;;;;;;;19.27;57.88;96622.63;5083029;28;20221;-71
2023/08/06 06:39:58;;;;;;;2.17;0.80;;;;;;;19.34;58.23;96624.16;5079611;28;20300;-70
2023/08/06 06:42:23;;;;;;;1.53;0.80;;;;;;;19.36;57.85;96621.28;5077194;28;20607;-71
2023/08/06 06:44:49;;;;;;;2.30;1.00;;;;;;;19.32;58.54;96630.72;5079574;28;20220;-70
2023/08/06 06:47:14;;;;;;;5.13;0.93;;;;;;;19.40;58.62;96625.13;5086857;28;20197;-70
2023/08/06 06:49:39;;;;;;;1.10;0.70;;;;;;;19.41;58.66;96624.06;5078569;28;20214;-70
2023/08/06 06:52:05;;;;;;;1.43;0.80;;;;;;;19.37;58.77;96627.41;5083920;28;20272;-70
2023/08/06 06:54:31;;;;;;;2.20;0.73;;;;;;;19.21;59.06;96623.50;5085763;28;20181;-70
2023/08/06 06:56:56;;;;;;;1.93;1.27;;;;;;;19.31;59.01;96629.94;5077068;28;20261;-70
2023/08/06 06:59:21;;;;;;;1.60;0.83;;;;;;;19.15;59.95;96631.31;5085973;28;20217;-72
2023/08/06 07:01:47;;;;;;;1.87;0.90;;;;;;;19.10;59.95;96630.34;5083134;28;20880;-69
2023/08/06 07:04:12;;;;;;;1.97;0.93;;;;;;;19.09;60.66;96629.56;5083302;28;20749;-70
2023/08/06 07:06:38;;;;;;;1.53;0.77;;;;;;;18.98;60.74;96631.09;5082594;28;20269;-72
2023/08/06 07:09:03;;;;;;;1.50;0.80;;;;;;;19.11;60.40;96632.81;5085870;28;20185;-70
2023/08/06 07:11:29;;;;;;;1.10;0.70;;;;;;;19.01;61.23;96635.16;5087677;28;20190;-71
2023/08/06 07:13:58;;;;;;;2.10;0.80;;;;;;;18.91;61.17;96634.81;5076796;28;20197;-71
2023/08/06 07:16:24;;;;;;;1.77;0.90;;;;;;;19.06;61.25;96632.66;5084423;28;20260;-70
2023/08/06 07:18:51;;;;;;;1.70;0.90;;;;;;;19.04;61.04;96634.69;5095322;28;20438;-70
2023/08/06 07:21:16;;;;;;;3.10;1.00;;;;;;;19.10;61.11;96633.00;5083473;28;20936;-71
2023/08/06 07:23:42;;;;;;;2.50;0.80;;;;;;;18.91;61.75;96632.16;5082668;28;20463;-71
2023/08/06 07:26:07;;;;;;;1.87;0.80;;;;;;;18.94;61.36;96634.41;5093706;28;20200;-70
2023/08/06 07:28:33;;;;;;;2.10;0.80;;;;;;;18.70;62.32;96644.81;5078820;28;20655;-72
2023/08/06 07:30:58;;;;;;;1.57;0.80;;;;;;;18.85;62.21;96647.94;5087391;28;20337;-68
2023/08/06 07:33:23;;;;;;;3.57;0.80;;;;;;;18.68;62.49;96641.56;5083089;28;20186;-71
2023/08/06 07:35:49;;;;;;;2.33;0.70;;;;;;;18.68;61.95;96641.56;5085486;28;20206;-66
2023/08/06 07:38:14;;;;;;;2.00;0.77;;;;;;;18.79;62.51;96643.50;5086528;28;20189;-71
2023/08/06 07:40:40;;;;;;;1.10;0.70;;;;;;;18.79;62.31;96638.19;5084830;28;20354;-71
2023/08/06 07:43:05;;;;;;;0.83;0.63;;;;;;;18.89;62.09;96640.34;5090318;28;20194;-69
2023/08/06 07:45:37;;;;;;;0.90;0.60;;;;;;;19.03;61.87;96638.38;5085756;28;20270;-70
2023/08/06 07:48:03;;;;;;;1.23;0.60;;;;;;;19.04;62.20;96640.00;5088567;28;20638;-69
2023/08/06 07:50:28;;;;;;;1.00;0.60;;;;;;;19.14;61.68;96626.22;5081308;28;20453;-69
2023/08/06 07:52:54;;;;;;;1.20;0.60;;;;;;;18.93;61.13;96632.75;5089581;28;20932;-72
2023/08/06 07:55:19;;;;;;;0.93;0.50;;;;;;;19.06;61.85;96629.19;5083703;28;20205;-70
2023/08/06 07:57:45;;;;;;;1.23;0.60;;;;;;;19.11;62.27;96639.94;5083698;28;20189;-69
2023/08/06 08:00:10;;;;;;;1.73;0.60;;;;;;;19.21;61.79;96629.66;5080979;28;20209;-71
2023/08/06 08:02:36;;;;;;;1.00;0.60;;;;;;;19.19;62.15;96627.19;5084389;28;20792;-69
2023/08/06 08:05:01;;;;;;;0.80;0.43;;;;;;;19.23;60.68;96638.19;5081140;28;20568;-69
2023/08/06 08:07:28;;;;;;;1.10;0.40;;;;;;;19.40;60.36;96637.59;5082097;28;20195;-70
2023/08/06 08:09:54;;;;;;;6.33;0.53;;;;;;;19.42;60.84;96643.50;5085111;28;20605;-70
2023/08/06 08:12:19;;;;;;;1.37;0.40;;;;;;;19.41;60.18;96640.00;5082033;28;20436;-71
2023/08/06 08:14:45;;;;;;;2.03;0.50;;;;;;;19.37;59.96;96644.16;5079401;28;20198;-71
2023/08/06 08:17:11;;;;;;;0.80;0.50;;;;;;;19.44;60.33;96646.75;5087099;28;20220;-70
2023/08/06 08:19:36;;;;;;;0.80;0.50;;;;;;;19.52;60.13;96641.13;5088977;28;20232;-70
2023/08/06 08:22:03;;;;;;;1.10;0.50;;;;;;;19.47;59.79;96639.13;5084870;28;20439;-70
2023/08/06 08:24:30;;;;;;;1.10;0.50;;;;;;;19.42;60.58;96641.63;5083510;28;20189;-70
2023/08/06 08:26:56;;;;;;;1.67;0.60;;;;;;;19.32;60.55;96638.69;5082676;28;20434;-70
2023/08/06 08:29:22;;;;;;;1.00;0.50;;;;;;;19.32;60.59;96642.19;5084782;28;20969;-71
2023/08/06 08:31:49;;;;;;;1.30;0.60;;;;;;;19.41;60.60;96633.91;5084070;28;20185;-70
2023/08/06 08:34:18;;;;;;;5.73;0.67;;;;;;;19.32;60.68;96636.03;5086448;28;20431;-69
2023/08/06 08:36:46;;;;;;;1.97;0.40;;;;;;;19.06;60.58;96642.47;5080973;28;20496;-70
2023/08/06 08:39:12;;;;;;;1.03;0.50;;;;;;;19.08;60.90;96635.91;5084411;28;20508;-70
2023/08/06 08:41:37;;;;;;;1.43;0.40;;;;;;;18.97;61.65;96641.94;5079521;28;20433;-69
2023/08/06 08:44:05;;;;;;;0.70;0.40;;;;;;;18.93;60.85;96636.22;5079813;28;20241;-70
2023/08/06 08:46:32;;;;;;;1.47;0.50;;;;;;;18.88;61.07;96636.88;5083823;28;20725;-70
2023/08/06 08:48:59;;;;;;;0.80;0.47;;;;;;;18.57;61.71;96637.78;5080927;28;20436;-69
2023/08/06 08:51:25;;;;;;;0.80;0.50;;;;;;;18.60;62.43;96642.63;5085881;28;20423;-69
2023/08/06 08:53:53;;;;;;;0.83;0.43;;;;;;;18.85;62.26;96655.06;5080313;28;20443;-71
2023/08/06 08:56:19;;;;;;;2.80;0.50;;;;;;;18.49;62.55;96652.13;5088429;28;20463;-69
2023/08/06 08:58:44;;;;;;;0.90;0.57;;;;;;;18.77;62.93;96650.06;5083246;28;20424;-70
2023/08/06 09:01:10;;;;;;;2.40;0.60;;;;;;;18.85;63.01;96645.28;5083187;28;20877;-70
2023/08/06 09:03:36;;;;;;;0.80;0.50;;;;;;;18.97;63.09;96648.03;5083861;28;20248;-70
2023/08/06 09:06:02;;;;;;;0.70;0.40;;;;;;;18.96;63.08;96637.66;5087157;28;20217;-71
2023/08/06 09:08:34;;;;;;;0.90;0.40;;;;;;;19.12;62.34;96644.22;5086273;28;21020;-71
2023/08/06 09:11:01;;;;;;;0.83;0.40;;;;;;;19.21;61.70;96639.44;5084928;28;20466;-71
2023/08/06 09:13:27;;;;;;;0.80;0.40;;;;;;;19.47;61.52;96643.63;5084630;28;20428;-70
2023/08/06 09:15:52;;;;;;;0.80;0.40;;;;;;;19.62;60.12;96652.03;5082617;28;20816;-70
2023/08/06 09:18:25;;;;;;;1.00;0.40;;;;;;;19.78;59.98;96642.63;5081733;28;20188;-69
2023/08/06 09:20:51;;;;;;;0.70;0.40;;;;;;;19.53;58.70;96645.41;5080548;28;20205;-70
2023/08/06 09:23:16;;;;;;;0.83;0.40;;;;;;;19.82;59.16;96650.97;5081855;28;20433;-71
2023/08/06 09:25:42;;;;;;;0.80;0.40;;;;;;;19.91;59.08;96640.88;5083059;28;20340;-70
2023/08/06 09:28:07;;;;;;;0.80;0.40;;;;;;;19.94;58.90;96651.03;5085016;28;20225;-70
2023/08/06 09:30:35;;;;;;;0.90;0.50;;;;;;;19.83;58.67;96657.91;5082288;28;20216;-71
2023/08/06 09:33:01;;;;;;;0.70;0.40;;;;;;;19.80;59.17;96661.03;5085034;28;20278;-70
2023/08/06 09:35:30;;;;;;;0.90;0.50;;;;;;;19.74;60.02;96660.06;5081472;28;21131;-70
2023/08/06 09:37:56;;;;;;;1.10;0.50;;;;;;;19.58;60.35;96661.50;5080509;28;20190;-69
2023/08/06 09:40:26;;;;;;;0.80;0.50;;;;;;;19.76;60.18;96663.31;5082080;28;20528;-71
2023/08/06 09:42:52;;;;;;;0.80;0.50;;;;;;;19.90;59.83;96660.53;5085322;28;20218;-70
2023/08/06 09:45:17;;;;;;;0.90;0.40;;;;;;;19.94;60.05;96670.47;5083406;28;20529;-68
2023/08/06 09:47:43;;;;;;;0.80;0.40;;;;;;;20.07;59.69;96664.16;5082727;28;20186;-71
2023/08/06 09:50:19;;;;;;;4.10;0.40;;;;;;;19.96;60.08;96664.91;5081081;28;20246;-70
2023/08/06 09:52:44;;;;;;;1.07;0.40;;;;;;;20.01;60.09;96667.72;5080959;28;20560;-70
2023/08/06 09:55:13;;;;;;;0.90;0.50;;;;;;;20.10;60.00;96663.72;5085341;28;20460;-70
2023/08/06 09:57:40;;;;;;;0.70;0.40;;;;;;;20.06;59.17;96653.75;5082198;28;20197;-70
2023/08/06 10:00:08;;;;;;;0.83;0.40;;;;;;;19.83;59.69;96667.72;5089234;28;20459;-70
2023/08/06 10:02:34;;;;;;;0.80;0.40;;;;;;;19.75;60.35;96656.38;5085624;28;20424;-68
2023/08/06 10:05:00;;;;;;;2.10;0.77;;;;;;;19.75;60.67;96667.00;5083701;28;20439;-68
2023/08/06 10:07:26;;;;;;;2.50;0.40;;;;;;;19.75;60.90;96677.66;5080847;28;20511;-70
2023/08/06 10:09:51;;;;;;;0.90;0.50;;;;;;;19.43;61.61;96669.03;5088694;28;20220;-68
2023/08/06 10:12:19;;;;;;;1.00;0.40;;;;;;;19.30;62.60;96677.94;5084527;28;20227;-69
2023/08/06 10:14:46;;;;;;;0.80;0.50;;;;;;;19.44;62.48;96679.44;5081722;28;20185;-69
2023/08/06 10:17:11;;;;;;;0.83;0.50;;;;;;;19.43;62.41;96666.38;5063721;28;20795;-70
2023/08/06 10:19:37;;;;;;;0.80;0.40;;;;;;;19.55;62.45;96679.72;5083305;28;20440;-70
2023/08/06 10:22:21;;;;;;;0.80;0.50;;;;;;;19.55;62.06;96685.03;5079710;28;20603;-70
2023/08/06 10:24:57;;;;;;;0.80;0.50;;;;;;;19.60;61.56;96693.16;5081766;28;20577;-69
2023/08/06 10:27:32;;;;;;;0.90;0.40;;;;;;;19.62;61.52;96694.56;5082394;28;21234;-69
2023/08/06 10:30:30;;;;;;;1.00;0.43;;;;;;;19.47;62.52;96691.44;5083817;28;20971;-70
2023/08/06 10:33:04;;;;;;;0.80;0.50;;;;;;;19.63;61.70;96687.41;5081910;28;20423;-71
2023/08/06 10:35:49;;;;;;;0.80;0.50;;;;;;;19.49;61.74;96695.53;5087984;28;20495;-70
2023/08/06 10:38:17;;;;;;;2.30;0.60;;;;;;;19.65;61.47;96682.69;5081409;28;20424;-69
2023/08/06 10:40:50;;;;;;;0.87;0.60;;;;;;;19.73;61.34;96698.31;5083915;28;20549;-69
2023/08/06 10:43:35;;;;;;;0.77;0.40;;;;;;;19.69;60.85;96705.09;5080340;28;20428;-70
2023/08/06 10:46:10;;;;;;;0.90;0.50;;;;;;;19.72;61.29;96702.00;5088061;28;20428;-69
2023/08/06 10:48:44;;;;;;;0.70;0.40;;;;;;;19.66;61.52;96700.22;5082398;28;20420;-69
2023/08/06 10:51:12;;;;;;;3.07;0.57;;;;;;;19.67;61.85;96695.75;5086026;28;20439;-68
2023/08/06 10:53:45;;;;;;;0.73;0.40;;;;;;;19.69;61.41;96702.44;5091665;28;20420;-70
2023/08/06 10:56:21;;;;;;;1.77;0.50;;;;;;;19.66;61.51;96708.19;5083372;28;21027;-70
2023/08/06 10:58:48;;;;;;;1.00;0.50;;;;;;;19.87;61.17;96703.50;5083223;28;20916;-70
2023/08/06 11:01:13;;;;;;;3.27;0.50;;;;;;;19.85;60.78;96711.66;5086604;28;20577;-69
2023/08/06 11:03:39;;;;;;;1.00;0.50;;;;;;;19.97;60.04;96714.41;5085242;28;20436;-71
2023/08/06 11:06:08;;;;;;;1.43;0.53;;;;;;;20.02;60.12;96724.38;5089872;28;20262;-69
2023/08/06 11:08:35;;;;;;;0.80;0.50;;;;;;;20.11;59.91;96720.34;5091128;28;20436;-70
2023/08/06 11:11:13;;;;;;;0.93;0.43;;;;;;;20.05;59.03;96724.72;5093519;28;20851;-70
2023/08/06 11:13:40;;;;;;;1.00;0.47;;;;;;;19.92;59.19;96722.25;5090624;28;20452;-68
2023/08/06 11:16:06;;;;;;;0.80;0.50;;;;;;;19.80;59.38;96728.28;5091322;28;20832;-70
2023/08/06 11:18:32;;;;;;;1.00;0.60;;;;;;;19.65;59.57;96730.53;5088122;28;20435;-69
2023/08/06 11:21:01;;;;;;;0.80;0.43;;;;;;;19.62;59.96;96736.28;5085920;28;20209;-70
2023/08/06 11:23:31;;;;;;;2.80;0.60;;;;;;;19.46;60.37;96748.31;5091787;28;20500;-68
2023/08/06 11:25:57;;;;;;;0.80;0.50;;;;;;;19.60;59.93;96747.09;5081643;28;20821;-69
2023/08/06 11:28:23;;;;;;;1.00;0.60;;;;;;;19.75;59.95;96744.09;5082346;28;20432;-70
2023/08/06 11:30:49;;;;;;;1.83;0.50;;;;;;;19.72;60.10;96733.91;5084551;28;20464;-68
2023/08/06 11:33:15;;;;;;;0.80;0.60;;;;;;;19.96;59.23;96752.69;5086333;28;20803;-68